sensor_id;sensor_type;location;lat;lon;timestamp;P1;durP1;ratioP1;P2;durP2;ratioP2
75626;SDS011;67372;49.404;11.034;2023-04-24T00:00:50;4.45;;;1.77;;
75626;SDS011;67372;49.404;11.034;2023-04-24T00:03:17;3.25;;;2.00;;
75626;SDS011;67372;49.404;11.034;2023-04-24T00:05:43;3.47;;;1.70;;
75626;SDS011;67372;49.404;11.034;2023-04-24T00:08:10;2.53;;;1.80;;
75626;SDS011;67372;49.404;11.034;2023-04-24T00:10:36;4.43;;;2.00;;
75626;SDS011;67372;49.404;11.034;2023-04-24T00:13:02;2.65;;;1.85;;
75626;SDS011;67372;49.404;11.034;2023-04-24T00:15:28;4.07;;;1.80;;
75626;SDS011;67372;49.404;11.034;2023-04-24T00:17:55;2.97;;;1.75;;
75626;SDS011;67372;49.404;11.034;2023-04-24T00:20:21;3.38;;;1.77;;
75626;SDS011;67372;49.404;11.034;2023-04-24T00:22:48;3.03;;;1.80;;
75626;SDS011;67372;49.404;11.034;2023-04-24T00:25:14;2.47;;;1.52;;
75626;SDS011;67372;49.404;11.034;2023-04-24T00:27:40;5.13;;;1.90;;
75626;SDS011;67372;49.404;11.034;2023-04-24T00:30:07;2.90;;;1.70;;
75626;SDS011;67372;49.404;11.034;2023-04-24T00:32:34;3.35;;;1.70;;
75626;SDS011;67372;49.404;11.034;2023-04-24T00:35:00;2.78;;;1.73;;
75626;SDS011;67372;49.404;11.034;2023-04-24T00:37:26;3.72;;;1.88;;
75626;SDS011;67372;49.404;11.034;2023-04-24T00:39:53;3.50;;;1.58;;
75626;SDS011;67372;49.404;11.034;2023-04-24T00:42:19;3.05;;;1.65;;
75626;SDS011;67372;49.404;11.034;2023-04-24T00:44:46;3.30;;;1.58;;
75626;SDS011;67372;49.404;11.034;2023-04-24T00:47:13;1.70;;;1.30;;
75626;SDS011;67372;49.404;11.034;2023-04-24T00:49:40;1.85;;;1.40;;
75626;SDS011;67372;49.404;11.034;2023-04-24T00:52:06;2.90;;;1.70;;
75626;SDS011;67372;49.404;11.034;2023-04-24T00:54:33;2.28;;;1.42;;
75626;SDS011;67372;49.404;11.034;2023-04-24T00:56:59;2.67;;;1.65;;
75626;SDS011;67372;49.404;11.034;2023-04-24T00:59:25;2.38;;;1.52;;
75626;SDS011;67372;49.404;11.034;2023-04-24T01:01:52;2.58;;;1.50;;
75626;SDS011;67372;49.404;11.034;2023-04-24T01:04:19;3.08;;;1.70;;
75626;SDS011;67372;49.404;11.034;2023-04-24T01:06:46;2.45;;;1.75;;
75626;SDS011;67372;49.404;11.034;2023-04-24T01:09:12;3.28;;;1.80;;
75626;SDS011;67372;49.404;11.034;2023-04-24T01:11:39;3.35;;;1.75;;
75626;SDS011;67372;49.404;11.034;2023-04-24T01:14:07;3.33;;;1.88;;
75626;SDS011;67372;49.404;11.034;2023-04-24T01:16:33;2.38;;;1.48;;
75626;SDS011;67372;49.404;11.034;2023-04-24T01:19:00;2.10;;;1.35;;
75626;SDS011;67372;49.404;11.034;2023-04-24T01:21:26;3.60;;;1.40;;
75626;SDS011;67372;49.404;11.034;2023-04-24T01:23:53;3.55;;;1.58;;
75626;SDS011;67372;49.404;11.034;2023-04-24T01:26:19;1.92;;;1.20;;
75626;SDS011;67372;49.404;11.034;2023-04-24T01:28:47;2.75;;;1.67;;
75626;SDS011;67372;49.404;11.034;2023-04-24T01:31:14;2.67;;;1.50;;
75626;SDS011;67372;49.404;11.034;2023-04-24T01:33:41;2.03;;;1.38;;
75626;SDS011;67372;49.404;11.034;2023-04-24T01:36:09;2.33;;;1.08;;
75626;SDS011;67372;49.404;11.034;2023-04-24T01:38:37;2.53;;;1.58;;
75626;SDS011;67372;49.404;11.034;2023-04-24T01:41:03;1.67;;;1.10;;
75626;SDS011;67372;49.404;11.034;2023-04-24T01:43:30;2.95;;;1.13;;
75626;SDS011;67372;49.404;11.034;2023-04-24T01:45:57;2.70;;;1.13;;
75626;SDS011;67372;49.404;11.034;2023-04-24T01:48:24;2.25;;;1.20;;
75626;SDS011;67372;49.404;11.034;2023-04-24T01:50:50;3.40;;;1.50;;
75626;SDS011;67372;49.404;11.034;2023-04-24T01:53:17;2.13;;;0.82;;
75626;SDS011;67372;49.404;11.034;2023-04-24T01:55:43;1.73;;;1.08;;
75626;SDS011;67372;49.404;11.034;2023-04-24T01:58:10;2.58;;;1.58;;
75626;SDS011;67372;49.404;11.034;2023-04-24T02:00:36;1.67;;;1.08;;
75626;SDS011;67372;49.404;11.034;2023-04-24T02:03:03;1.40;;;0.90;;
75626;SDS011;67372;49.404;11.034;2023-04-24T02:05:29;1.25;;;0.90;;
75626;SDS011;67372;49.404;11.034;2023-04-24T02:07:56;2.75;;;1.00;;
75626;SDS011;67372;49.404;11.034;2023-04-24T02:10:22;0.93;;;0.82;;
75626;SDS011;67372;49.404;11.034;2023-04-24T02:12:48;3.58;;;0.85;;
75626;SDS011;67372;49.404;11.034;2023-04-24T02:15:15;1.67;;;1.17;;
75626;SDS011;67372;49.404;11.034;2023-04-24T02:17:41;1.33;;;0.90;;
75626;SDS011;67372;49.404;11.034;2023-04-24T02:20:07;1.55;;;1.08;;
75626;SDS011;67372;49.404;11.034;2023-04-24T02:22:34;1.10;;;0.90;;
75626;SDS011;67372;49.404;11.034;2023-04-24T02:25:00;2.38;;;1.08;;
75626;SDS011;67372;49.404;11.034;2023-04-24T02:27:26;1.55;;;0.95;;
75626;SDS011;67372;49.404;11.034;2023-04-24T02:29:53;3.15;;;1.23;;
75626;SDS011;67372;49.404;11.034;2023-04-24T02:32:19;3.30;;;1.08;;
75626;SDS011;67372;49.404;11.034;2023-04-24T02:34:45;3.10;;;0.90;;
75626;SDS011;67372;49.404;11.034;2023-04-24T02:37:12;1.77;;;1.10;;
75626;SDS011;67372;49.404;11.034;2023-04-24T02:39:38;2.45;;;1.20;;
75626;SDS011;67372;49.404;11.034;2023-04-24T02:42:04;1.83;;;1.13;;
75626;SDS011;67372;49.404;11.034;2023-04-24T02:44:31;1.60;;;1.00;;
75626;SDS011;67372;49.404;11.034;2023-04-24T02:46:57;1.60;;;1.10;;
75626;SDS011;67372;49.404;11.034;2023-04-24T02:49:23;1.48;;;1.05;;
75626;SDS011;67372;49.404;11.034;2023-04-24T02:51:50;1.75;;;1.10;;
75626;SDS011;67372;49.404;11.034;2023-04-24T02:54:16;1.63;;;1.08;;
75626;SDS011;67372;49.404;11.034;2023-04-24T02:56:42;1.95;;;1.15;;
75626;SDS011;67372;49.404;11.034;2023-04-24T02:59:09;1.20;;;0.95;;
75626;SDS011;67372;49.404;11.034;2023-04-24T03:01:35;1.60;;;1.10;;
75626;SDS011;67372;49.404;11.034;2023-04-24T03:04:01;2.33;;;1.15;;
75626;SDS011;67372;49.404;11.034;2023-04-24T03:06:28;1.88;;;0.90;;
75626;SDS011;67372;49.404;11.034;2023-04-24T03:08:55;1.58;;;1.20;;
75626;SDS011;67372;49.404;11.034;2023-04-24T03:11:21;1.67;;;1.17;;
75626;SDS011;67372;49.404;11.034;2023-04-24T03:13:47;1.90;;;1.20;;
75626;SDS011;67372;49.404;11.034;2023-04-24T03:16:14;2.20;;;1.23;;
75626;SDS011;67372;49.404;11.034;2023-04-24T03:18:40;2.00;;;1.15;;
75626;SDS011;67372;49.404;11.034;2023-04-24T03:21:06;2.10;;;1.25;;
75626;SDS011;67372;49.404;11.034;2023-04-24T03:23:33;2.08;;;1.35;;
75626;SDS011;67372;49.404;11.034;2023-04-24T03:25:59;2.50;;;1.40;;
75626;SDS011;67372;49.404;11.034;2023-04-24T03:28:25;1.88;;;1.38;;
75626;SDS011;67372;49.404;11.034;2023-04-24T03:30:52;3.88;;;1.38;;
75626;SDS011;67372;49.404;11.034;2023-04-24T03:33:18;2.00;;;1.40;;
75626;SDS011;67372;49.404;11.034;2023-04-24T03:35:44;2.08;;;1.33;;
75626;SDS011;67372;49.404;11.034;2023-04-24T03:38:11;1.92;;;1.30;;
75626;SDS011;67372;49.404;11.034;2023-04-24T03:40:37;2.65;;;1.50;;
75626;SDS011;67372;49.404;11.034;2023-04-24T03:43:03;2.40;;;1.55;;
75626;SDS011;67372;49.404;11.034;2023-04-24T03:45:30;2.38;;;1.63;;
75626;SDS011;67372;49.404;11.034;2023-04-24T03:47:56;4.60;;;1.83;;
75626;SDS011;67372;49.404;11.034;2023-04-24T03:50:22;3.97;;;1.63;;
75626;SDS011;67372;49.404;11.034;2023-04-24T03:52:49;3.97;;;1.80;;
75626;SDS011;67372;49.404;11.034;2023-04-24T03:55:15;2.65;;;1.58;;
75626;SDS011;67372;49.404;11.034;2023-04-24T03:57:41;2.70;;;1.70;;
75626;SDS011;67372;49.404;11.034;2023-04-24T04:00:08;3.55;;;1.67;;
75626;SDS011;67372;49.404;11.034;2023-04-24T04:02:35;4.22;;;2.20;;
75626;SDS011;67372;49.404;11.034;2023-04-24T04:05:01;2.65;;;1.90;;
75626;SDS011;67372;49.404;11.034;2023-04-24T04:07:28;3.55;;;1.73;;
75626;SDS011;67372;49.404;11.034;2023-04-24T04:09:54;3.58;;;2.00;;
75626;SDS011;67372;49.404;11.034;2023-04-24T04:12:21;3.75;;;1.60;;
75626;SDS011;67372;49.404;11.034;2023-04-24T04:14:47;2.08;;;1.55;;
75626;SDS011;67372;49.404;11.034;2023-04-24T04:17:13;2.40;;;1.80;;
75626;SDS011;67372;49.404;11.034;2023-04-24T04:19:40;2.97;;;2.00;;
75626;SDS011;67372;49.404;11.034;2023-04-24T04:22:06;3.00;;;1.55;;
75626;SDS011;67372;49.404;11.034;2023-04-24T04:24:33;3.47;;;1.70;;
75626;SDS011;67372;49.404;11.034;2023-04-24T04:26:59;4.13;;;1.80;;
75626;SDS011;67372;49.404;11.034;2023-04-24T04:29:26;3.72;;;1.98;;
75626;SDS011;67372;49.404;11.034;2023-04-24T04:31:52;4.18;;;1.90;;
75626;SDS011;67372;49.404;11.034;2023-04-24T04:34:19;2.50;;;1.60;;
75626;SDS011;67372;49.404;11.034;2023-04-24T04:36:45;3.03;;;1.83;;
75626;SDS011;67372;49.404;11.034;2023-04-24T04:39:12;3.33;;;1.80;;
75626;SDS011;67372;49.404;11.034;2023-04-24T04:41:38;3.38;;;2.03;;
75626;SDS011;67372;49.404;11.034;2023-04-24T04:44:04;3.28;;;1.92;;
75626;SDS011;67372;49.404;11.034;2023-04-24T04:46:31;3.58;;;2.17;;
75626;SDS011;67372;49.404;11.034;2023-04-24T04:48:58;3.35;;;2.00;;
75626;SDS011;67372;49.404;11.034;2023-04-24T04:51:26;3.08;;;1.75;;
75626;SDS011;67372;49.404;11.034;2023-04-24T04:53:53;3.42;;;2.08;;
75626;SDS011;67372;49.404;11.034;2023-04-24T04:56:19;3.08;;;2.30;;
75626;SDS011;67372;49.404;11.034;2023-04-24T04:58:45;4.88;;;2.50;;
75626;SDS011;67372;49.404;11.034;2023-04-24T05:01:12;3.33;;;2.40;;
75626;SDS011;67372;49.404;11.034;2023-04-24T05:03:38;4.18;;;2.25;;
75626;SDS011;67372;49.404;11.034;2023-04-24T05:06:05;5.85;;;2.33;;
75626;SDS011;67372;49.404;11.034;2023-04-24T05:08:32;3.70;;;2.20;;
75626;SDS011;67372;49.404;11.034;2023-04-24T05:10:58;4.13;;;2.45;;
75626;SDS011;67372;49.404;11.034;2023-04-24T05:13:24;3.72;;;2.40;;
75626;SDS011;67372;49.404;11.034;2023-04-24T05:16:04;4.30;;;2.65;;
75626;SDS011;67372;49.404;11.034;2023-04-24T05:18:31;3.83;;;2.35;;
75626;SDS011;67372;49.404;11.034;2023-04-24T05:20:57;4.22;;;2.38;;
75626;SDS011;67372;49.404;11.034;2023-04-24T05:23:23;3.63;;;2.67;;
75626;SDS011;67372;49.404;11.034;2023-04-24T05:25:49;8.05;;;5.70;;
75626;SDS011;67372;49.404;11.034;2023-04-24T05:28:16;7.20;;;3.53;;
75626;SDS011;67372;49.404;11.034;2023-04-24T05:30:43;5.55;;;2.88;;
75626;SDS011;67372;49.404;11.034;2023-04-24T05:33:09;5.03;;;2.90;;
75626;SDS011;67372;49.404;11.034;2023-04-24T05:35:36;5.13;;;2.92;;
75626;SDS011;67372;49.404;11.034;2023-04-24T05:38:02;4.32;;;2.78;;
75626;SDS011;67372;49.404;11.034;2023-04-24T05:40:28;5.53;;;3.00;;
75626;SDS011;67372;49.404;11.034;2023-04-24T05:42:55;4.43;;;2.60;;
75626;SDS011;67372;49.404;11.034;2023-04-24T05:45:21;4.18;;;2.78;;
75626;SDS011;67372;49.404;11.034;2023-04-24T05:47:47;4.47;;;2.50;;
75626;SDS011;67372;49.404;11.034;2023-04-24T05:50:14;4.55;;;2.40;;
75626;SDS011;67372;49.404;11.034;2023-04-24T05:52:40;4.22;;;2.90;;
75626;SDS011;67372;49.404;11.034;2023-04-24T05:55:06;4.35;;;2.72;;
75626;SDS011;67372;49.404;11.034;2023-04-24T05:57:33;3.92;;;2.25;;
75626;SDS011;67372;49.404;11.034;2023-04-24T05:59:59;4.43;;;2.30;;
75626;SDS011;67372;49.404;11.034;2023-04-24T06:02:26;3.55;;;2.47;;
75626;SDS011;67372;49.404;11.034;2023-04-24T06:04:52;4.57;;;2.75;;
75626;SDS011;67372;49.404;11.034;2023-04-24T06:07:19;4.30;;;2.42;;
75626;SDS011;67372;49.404;11.034;2023-04-24T06:09:45;3.10;;;2.30;;
75626;SDS011;67372;49.404;11.034;2023-04-24T06:12:11;3.35;;;2.05;;
75626;SDS011;67372;49.404;11.034;2023-04-24T06:14:38;4.50;;;2.28;;
75626;SDS011;67372;49.404;11.034;2023-04-24T06:17:04;5.65;;;2.53;;
75626;SDS011;67372;49.404;11.034;2023-04-24T06:19:30;6.30;;;2.50;;
75626;SDS011;67372;49.404;11.034;2023-04-24T06:21:57;4.40;;;2.42;;
75626;SDS011;67372;49.404;11.034;2023-04-24T06:24:26;4.10;;;2.20;;
75626;SDS011;67372;49.404;11.034;2023-04-24T06:26:53;4.53;;;2.55;;
75626;SDS011;67372;49.404;11.034;2023-04-24T06:29:20;4.63;;;2.30;;
75626;SDS011;67372;49.404;11.034;2023-04-24T06:31:46;5.25;;;2.30;;
75626;SDS011;67372;49.404;11.034;2023-04-24T06:34:12;3.63;;;2.00;;
75626;SDS011;67372;49.404;11.034;2023-04-24T06:36:39;1.88;;;1.15;;
75626;SDS011;67372;49.404;11.034;2023-04-24T06:39:05;1.73;;;1.20;;
75626;SDS011;67372;49.404;11.034;2023-04-24T06:41:31;1.15;;;0.73;;
75626;SDS011;67372;49.404;11.034;2023-04-24T06:43:58;1.00;;;0.70;;
75626;SDS011;67372;49.404;11.034;2023-04-24T06:46:24;0.73;;;0.60;;
75626;SDS011;67372;49.404;11.034;2023-04-24T06:48:51;1.48;;;0.77;;
75626;SDS011;67372;49.404;11.034;2023-04-24T06:51:18;1.20;;;0.70;;
75626;SDS011;67372;49.404;11.034;2023-04-24T06:53:44;0.80;;;0.60;;
75626;SDS011;67372;49.404;11.034;2023-04-24T06:56:13;1.98;;;0.85;;
75626;SDS011;67372;49.404;11.034;2023-04-24T06:58:39;0.90;;;0.70;;
75626;SDS011;67372;49.404;11.034;2023-04-24T07:01:05;1.20;;;0.70;;
75626;SDS011;67372;49.404;11.034;2023-04-24T07:03:32;1.77;;;0.80;;
75626;SDS011;67372;49.404;11.034;2023-04-24T07:05:58;1.00;;;0.60;;
75626;SDS011;67372;49.404;11.034;2023-04-24T07:08:25;1.30;;;0.63;;
75626;SDS011;67372;49.404;11.034;2023-04-24T07:10:51;0.82;;;0.60;;
75626;SDS011;67372;49.404;11.034;2023-04-24T07:13:18;1.27;;;0.65;;
75626;SDS011;67372;49.404;11.034;2023-04-24T07:15:44;1.50;;;0.60;;
75626;SDS011;67372;49.404;11.034;2023-04-24T07:18:10;1.00;;;0.70;;
75626;SDS011;67372;49.404;11.034;2023-04-24T07:20:37;1.48;;;0.60;;
75626;SDS011;67372;49.404;11.034;2023-04-24T07:23:03;1.42;;;0.85;;
75626;SDS011;67372;49.404;11.034;2023-04-24T07:25:29;1.10;;;0.80;;
75626;SDS011;67372;49.404;11.034;2023-04-24T07:27:56;1.10;;;0.90;;
75626;SDS011;67372;49.404;11.034;2023-04-24T07:30:23;1.30;;;0.88;;
75626;SDS011;67372;49.404;11.034;2023-04-24T07:32:49;1.42;;;1.00;;
75626;SDS011;67372;49.404;11.034;2023-04-24T07:35:16;1.70;;;1.10;;
75626;SDS011;67372;49.404;11.034;2023-04-24T07:37:42;2.20;;;1.20;;
75626;SDS011;67372;49.404;11.034;2023-04-24T07:40:09;1.75;;;1.02;;
75626;SDS011;67372;49.404;11.034;2023-04-24T07:42:35;1.70;;;0.90;;
75626;SDS011;67372;49.404;11.034;2023-04-24T07:45:02;1.45;;;1.23;;
75626;SDS011;67372;49.404;11.034;2023-04-24T07:47:28;1.30;;;1.00;;
75626;SDS011;67372;49.404;11.034;2023-04-24T07:49:55;1.83;;;1.25;;
75626;SDS011;67372;49.404;11.034;2023-04-24T07:52:22;1.90;;;1.48;;
75626;SDS011;67372;49.404;11.034;2023-04-24T07:54:48;2.17;;;1.25;;
75626;SDS011;67372;49.404;11.034;2023-04-24T07:57:14;2.72;;;1.23;;
75626;SDS011;67372;49.404;11.034;2023-04-24T07:59:41;2.67;;;1.40;;
75626;SDS011;67372;49.404;11.034;2023-04-24T08:02:08;1.52;;;1.10;;
75626;SDS011;67372;49.404;11.034;2023-04-24T08:04:34;3.92;;;1.80;;
75626;SDS011;67372;49.404;11.034;2023-04-24T08:07:01;2.03;;;1.48;;
75626;SDS011;67372;49.404;11.034;2023-04-24T08:09:27;2.15;;;1.60;;
75626;SDS011;67372;49.404;11.034;2023-04-24T08:11:54;2.55;;;1.60;;
75626;SDS011;67372;49.404;11.034;2023-04-24T08:14:20;2.40;;;1.60;;
75626;SDS011;67372;49.404;11.034;2023-04-24T08:16:46;2.95;;;1.77;;
75626;SDS011;67372;49.404;11.034;2023-04-24T08:19:13;2.03;;;1.50;;
75626;SDS011;67372;49.404;11.034;2023-04-24T08:21:39;3.30;;;2.00;;
75626;SDS011;67372;49.404;11.034;2023-04-24T08:24:05;2.53;;;1.73;;
75626;SDS011;67372;49.404;11.034;2023-04-24T08:26:32;2.35;;;1.75;;
75626;SDS011;67372;49.404;11.034;2023-04-24T08:28:58;2.58;;;1.90;;
75626;SDS011;67372;49.404;11.034;2023-04-24T08:31:24;3.65;;;2.00;;
75626;SDS011;67372;49.404;11.034;2023-04-24T08:33:51;2.88;;;2.10;;
75626;SDS011;67372;49.404;11.034;2023-04-24T08:36:17;4.18;;;1.90;;
75626;SDS011;67372;49.404;11.034;2023-04-24T08:38:43;4.20;;;1.80;;
75626;SDS011;67372;49.404;11.034;2023-04-24T08:41:10;2.85;;;1.80;;
75626;SDS011;67372;49.404;11.034;2023-04-24T08:46:04;2.55;;;1.92;;
75626;SDS011;67372;49.404;11.034;2023-04-24T08:48:36;2.63;;;1.90;;
75626;SDS011;67372;49.404;11.034;2023-04-24T08:51:04;3.42;;;1.98;;
75626;SDS011;67372;49.404;11.034;2023-04-24T08:53:33;3.28;;;2.25;;
75626;SDS011;67372;49.404;11.034;2023-04-24T08:56:01;3.38;;;2.10;;
75626;SDS011;67372;49.404;11.034;2023-04-24T08:58:28;2.35;;;1.73;;
75626;SDS011;67372;49.404;11.034;2023-04-24T09:00:56;3.95;;;1.98;;
75626;SDS011;67372;49.404;11.034;2023-04-24T09:03:24;2.35;;;2.00;;
75626;SDS011;67372;49.404;11.034;2023-04-24T09:05:54;4.28;;;2.30;;
75626;SDS011;67372;49.404;11.034;2023-04-24T09:08:22;3.90;;;1.90;;
75626;SDS011;67372;49.404;11.034;2023-04-24T09:10:50;3.72;;;2.03;;
75626;SDS011;67372;49.404;11.034;2023-04-24T09:13:17;6.28;;;2.50;;
75626;SDS011;67372;49.404;11.034;2023-04-24T09:15:45;2.65;;;1.85;;
75626;SDS011;67372;49.404;11.034;2023-04-24T09:18:12;2.80;;;2.10;;
75626;SDS011;67372;49.404;11.034;2023-04-24T09:20:57;2.42;;;1.92;;
75626;SDS011;67372;49.404;11.034;2023-04-24T09:23:31;2.30;;;1.83;;
75626;SDS011;67372;49.404;11.034;2023-04-24T09:25:58;2.20;;;1.70;;
75626;SDS011;67372;49.404;11.034;2023-04-24T09:28:27;2.15;;;1.63;;
75626;SDS011;67372;49.404;11.034;2023-04-24T09:31:03;2.78;;;2.00;;
75626;SDS011;67372;49.404;11.034;2023-04-24T09:33:30;3.30;;;1.98;;
75626;SDS011;67372;49.404;11.034;2023-04-24T09:35:56;2.20;;;1.70;;
75626;SDS011;67372;49.404;11.034;2023-04-24T09:38:35;2.60;;;1.83;;
75626;SDS011;67372;49.404;11.034;2023-04-24T09:41:04;2.53;;;1.88;;
75626;SDS011;67372;49.404;11.034;2023-04-24T09:43:32;2.65;;;2.03;;
75626;SDS011;67372;49.404;11.034;2023-04-24T09:46:04;2.67;;;1.92;;
75626;SDS011;67372;49.404;11.034;2023-04-24T09:48:33;2.78;;;1.88;;
75626;SDS011;67372;49.404;11.034;2023-04-24T09:51:01;2.20;;;1.63;;
75626;SDS011;67372;49.404;11.034;2023-04-24T09:53:29;2.45;;;1.30;;
75626;SDS011;67372;49.404;11.034;2023-04-24T09:56:01;2.08;;;1.40;;
75626;SDS011;67372;49.404;11.034;2023-04-24T09:58:29;1.90;;;1.20;;
75626;SDS011;67372;49.404;11.034;2023-04-24T10:00:55;2.08;;;1.10;;
75626;SDS011;67372;49.404;11.034;2023-04-24T10:03:25;1.83;;;1.38;;
75626;SDS011;67372;49.404;11.034;2023-04-24T10:05:58;1.40;;;1.10;;
75626;SDS011;67372;49.404;11.034;2023-04-24T10:08:35;1.92;;;1.10;;
75626;SDS011;67372;49.404;11.034;2023-04-24T10:11:02;2.53;;;1.50;;
75626;SDS011;67372;49.404;11.034;2023-04-24T10:13:29;2.03;;;1.30;;
75626;SDS011;67372;49.404;11.034;2023-04-24T10:18:25;1.92;;;1.23;;
75626;SDS011;67372;49.404;11.034;2023-04-24T10:20:52;2.05;;;1.30;;
75626;SDS011;67372;49.404;11.034;2023-04-24T10:23:19;1.73;;;1.20;;
75626;SDS011;67372;49.404;11.034;2023-04-24T10:25:45;1.95;;;1.50;;
75626;SDS011;67372;49.404;11.034;2023-04-24T10:28:12;2.42;;;1.05;;
75626;SDS011;67372;49.404;11.034;2023-04-24T10:30:39;2.20;;;1.10;;
75626;SDS011;67372;49.404;11.034;2023-04-24T10:33:09;1.25;;;1.10;;
75626;SDS011;67372;49.404;11.034;2023-04-24T10:35:36;1.38;;;1.00;;
75626;SDS011;67372;49.404;11.034;2023-04-24T10:38:06;1.60;;;1.50;;
75626;SDS011;67372;49.404;11.034;2023-04-24T10:40:35;1.92;;;1.02;;
75626;SDS011;67372;49.404;11.034;2023-04-24T10:43:02;1.30;;;0.80;;
75626;SDS011;67372;49.404;11.034;2023-04-24T10:45:30;1.25;;;0.90;;
75626;SDS011;67372;49.404;11.034;2023-04-24T10:48:01;1.00;;;0.80;;
75626;SDS011;67372;49.404;11.034;2023-04-24T10:50:47;1.20;;;1.00;;
75626;SDS011;67372;49.404;11.034;2023-04-24T10:53:21;1.63;;;1.10;;
75626;SDS011;67372;49.404;11.034;2023-04-24T10:55:52;1.85;;;0.90;;
75626;SDS011;67372;49.404;11.034;2023-04-24T10:58:23;1.50;;;0.90;;
75626;SDS011;67372;49.404;11.034;2023-04-24T11:00:57;1.67;;;0.82;;
75626;SDS011;67372;49.404;11.034;2023-04-24T11:03:27;2.53;;;1.05;;
75626;SDS011;67372;49.404;11.034;2023-04-24T11:56:03;2.42;;;1.40;;
75626;SDS011;67372;49.404;11.034;2023-04-24T11:58:37;2.08;;;1.42;;
75626;SDS011;67372;49.404;11.034;2023-04-24T12:01:06;2.03;;;1.20;;
75626;SDS011;67372;49.404;11.034;2023-04-24T12:03:32;1.60;;;1.40;;
75626;SDS011;67372;49.404;11.034;2023-04-24T12:06:09;1.63;;;1.25;;
75626;SDS011;67372;49.404;11.034;2023-04-24T12:08:37;2.42;;;1.35;;
75626;SDS011;67372;49.404;11.034;2023-04-24T12:11:05;1.90;;;1.20;;
75626;SDS011;67372;49.404;11.034;2023-04-24T12:13:33;1.85;;;1.25;;
75626;SDS011;67372;49.404;11.034;2023-04-24T12:16:04;1.55;;;1.27;;
75626;SDS011;67372;49.404;11.034;2023-04-24T12:18:30;1.50;;;1.20;;
75626;SDS011;67372;49.404;11.034;2023-04-24T12:23:49;2.22;;;1.50;;
75626;SDS011;67372;49.404;11.034;2023-04-24T12:26:16;2.63;;;1.42;;
75626;SDS011;67372;49.404;11.034;2023-04-24T12:28:46;3.75;;;1.60;;
75626;SDS011;67372;49.404;11.034;2023-04-24T12:31:14;3.05;;;1.50;;
75626;SDS011;67372;49.404;11.034;2023-04-24T12:33:42;2.25;;;1.35;;
75626;SDS011;67372;49.404;11.034;2023-04-24T12:36:11;1.40;;;1.00;;
75626;SDS011;67372;49.404;11.034;2023-04-24T12:38:38;2.50;;;1.52;;
75626;SDS011;67372;49.404;11.034;2023-04-24T12:41:11;1.60;;;1.00;;
75626;SDS011;67372;49.404;11.034;2023-04-24T12:43:50;1.48;;;0.90;;
75626;SDS011;67372;49.404;11.034;2023-04-24T12:46:17;1.30;;;0.90;;
75626;SDS011;67372;49.404;11.034;2023-04-24T12:48:47;1.88;;;1.35;;
75626;SDS011;67372;49.404;11.034;2023-04-24T12:51:13;2.17;;;1.25;;
75626;SDS011;67372;49.404;11.034;2023-04-24T12:53:40;1.48;;;1.15;;
75626;SDS011;67372;49.404;11.034;2023-04-24T12:56:07;3.35;;;1.42;;
75626;SDS011;67372;49.404;11.034;2023-04-24T12:58:33;1.42;;;1.10;;
75626;SDS011;67372;49.404;11.034;2023-04-24T13:00:59;2.10;;;1.20;;
75626;SDS011;67372;49.404;11.034;2023-04-24T13:03:26;1.98;;;1.10;;
75626;SDS011;67372;49.404;11.034;2023-04-24T13:05:52;2.75;;;1.30;;
75626;SDS011;67372;49.404;11.034;2023-04-24T13:08:18;2.70;;;1.27;;
75626;SDS011;67372;49.404;11.034;2023-04-24T13:10:45;2.45;;;1.30;;
75626;SDS011;67372;49.404;11.034;2023-04-24T13:13:12;2.40;;;1.48;;
75626;SDS011;67372;49.404;11.034;2023-04-24T13:15:38;1.50;;;1.40;;
75626;SDS011;67372;49.404;11.034;2023-04-24T13:18:04;2.92;;;1.75;;
75626;SDS011;67372;49.404;11.034;2023-04-24T13:20:31;1.73;;;1.38;;
75626;SDS011;67372;49.404;11.034;2023-04-24T13:22:57;2.92;;;1.77;;
75626;SDS011;67372;49.404;11.034;2023-04-24T13:25:23;3.88;;;2.15;;
75626;SDS011;67372;49.404;11.034;2023-04-24T13:27:50;2.22;;;1.77;;
75626;SDS011;67372;49.404;11.034;2023-04-24T13:30:16;2.30;;;1.73;;
75626;SDS011;67372;49.404;11.034;2023-04-24T13:32:43;2.17;;;1.75;;
75626;SDS011;67372;49.404;11.034;2023-04-24T13:35:09;2.10;;;1.45;;
75626;SDS011;67372;49.404;11.034;2023-04-24T13:37:36;3.70;;;1.70;;
75626;SDS011;67372;49.404;11.034;2023-04-24T13:40:02;2.38;;;1.60;;
75626;SDS011;67372;49.404;11.034;2023-04-24T13:42:29;1.98;;;1.75;;
75626;SDS011;67372;49.404;11.034;2023-04-24T13:44:55;2.45;;;1.73;;
75626;SDS011;67372;49.404;11.034;2023-04-24T13:47:21;3.13;;;2.00;;
75626;SDS011;67372;49.404;11.034;2023-04-24T13:49:47;2.50;;;2.20;;
75626;SDS011;67372;49.404;11.034;2023-04-24T13:52:14;3.10;;;1.92;;
75626;SDS011;67372;49.404;11.034;2023-04-24T13:54:40;3.20;;;2.33;;
75626;SDS011;67372;49.404;11.034;2023-04-24T13:57:07;3.28;;;2.20;;
75626;SDS011;67372;49.404;11.034;2023-04-24T13:59:33;3.35;;;2.30;;
75626;SDS011;67372;49.404;11.034;2023-04-24T14:01:59;2.83;;;1.88;;
75626;SDS011;67372;49.404;11.034;2023-04-24T14:04:26;3.47;;;2.30;;
75626;SDS011;67372;49.404;11.034;2023-04-24T14:06:53;3.90;;;2.45;;
75626;SDS011;67372;49.404;11.034;2023-04-24T14:09:19;3.20;;;2.25;;
75626;SDS011;67372;49.404;11.034;2023-04-24T14:11:45;3.10;;;2.10;;
75626;SDS011;67372;49.404;11.034;2023-04-24T14:14:12;3.58;;;2.28;;
75626;SDS011;67372;49.404;11.034;2023-04-24T14:16:38;3.42;;;1.88;;
75626;SDS011;67372;49.404;11.034;2023-04-24T14:19:05;2.38;;;1.73;;
75626;SDS011;67372;49.404;11.034;2023-04-24T14:21:32;2.85;;;1.80;;
75626;SDS011;67372;49.404;11.034;2023-04-24T14:23:58;2.45;;;1.90;;
75626;SDS011;67372;49.404;11.034;2023-04-24T14:26:25;2.88;;;2.00;;
75626;SDS011;67372;49.404;11.034;2023-04-24T14:28:51;2.47;;;1.90;;
75626;SDS011;67372;49.404;11.034;2023-04-24T14:31:23;1.77;;;1.58;;
75626;SDS011;67372;49.404;11.034;2023-04-24T14:33:49;2.35;;;1.70;;
75626;SDS011;67372;49.404;11.034;2023-04-24T14:36:15;2.03;;;1.65;;
75626;SDS011;67372;49.404;11.034;2023-04-24T14:38:42;2.75;;;2.20;;
75626;SDS011;67372;49.404;11.034;2023-04-24T14:41:08;2.33;;;1.90;;
75626;SDS011;67372;49.404;11.034;2023-04-24T14:43:39;3.50;;;1.75;;
75626;SDS011;67372;49.404;11.034;2023-04-24T14:46:05;2.13;;;1.88;;
75626;SDS011;67372;49.404;11.034;2023-04-24T14:48:31;2.47;;;1.77;;
75626;SDS011;67372;49.404;11.034;2023-04-24T14:50:58;1.85;;;1.30;;
75626;SDS011;67372;49.404;11.034;2023-04-24T14:53:24;1.40;;;1.23;;
75626;SDS011;67372;49.404;11.034;2023-04-24T14:55:50;1.67;;;1.38;;
75626;SDS011;67372;49.404;11.034;2023-04-24T14:58:17;1.55;;;1.38;;
75626;SDS011;67372;49.404;11.034;2023-04-24T15:00:43;1.98;;;1.52;;
75626;SDS011;67372;49.404;11.034;2023-04-24T15:03:10;1.75;;;1.38;;
75626;SDS011;67372;49.404;11.034;2023-04-24T15:05:37;3.03;;;1.73;;
75626;SDS011;67372;49.404;11.034;2023-04-24T15:08:04;2.13;;;1.80;;
75626;SDS011;67372;49.404;11.034;2023-04-24T15:10:30;2.88;;;1.60;;
75626;SDS011;67372;49.404;11.034;2023-04-24T15:12:56;4.07;;;2.03;;
75626;SDS011;67372;49.404;11.034;2023-04-24T15:15:23;2.10;;;1.70;;
75626;SDS011;67372;49.404;11.034;2023-04-24T15:17:49;2.10;;;1.90;;
75626;SDS011;67372;49.404;11.034;2023-04-24T15:20:16;3.25;;;2.35;;
75626;SDS011;67372;49.404;11.034;2023-04-24T15:22:42;2.88;;;2.03;;
75626;SDS011;67372;49.404;11.034;2023-04-24T15:25:09;3.25;;;2.15;;
75626;SDS011;67372;49.404;11.034;2023-04-24T15:30:06;3.22;;;2.22;;
75626;SDS011;67372;49.404;11.034;2023-04-24T15:32:33;3.80;;;2.42;;